createdAt,value
2023-05-11T00:03:56.611Z,101229.38
2023-05-11T00:09:02.151Z,101223.70
2023-05-11T00:14:07.708Z,101227.86
2023-05-11T00:19:13.076Z,101222.53
2023-05-11T00:24:18.572Z,101226.89
2023-05-11T00:29:23.840Z,101229.85
2023-05-11T00:34:29.438Z,101225.02
2023-05-11T00:39:40.460Z,101224.48
2023-05-11T00:44:46.150Z,101226.55
2023-05-11T00:49:53.975Z,101223.92
2023-05-11T00:54:59.481Z,101221.50
2023-05-11T01:00:07.666Z,101221.83
2023-05-11T01:05:13.459Z,101220.44
2023-05-11T01:10:28.218Z,101215.91
2023-05-11T01:15:41.868Z,101212.80
2023-05-11T01:20:53.262Z,101211.38
2023-05-11T01:26:16.992Z,101213.51
2023-05-11T01:31:24.550Z,101216.45
2023-05-11T01:36:33.918Z,101215.24
2023-05-11T01:41:42.014Z,101212.50
2023-05-11T01:46:49.033Z,101208.17
2023-05-11T01:51:56.041Z,101210.80
2023-05-11T01:57:02.899Z,101207.95
2023-05-11T02:02:10.175Z,101210.77
2023-05-11T02:07:19.057Z,101208.62
2023-05-11T02:12:25.675Z,101208.77
2023-05-11T02:17:32.394Z,101211.11
2023-05-11T02:22:39.419Z,101215.71
2023-05-11T02:27:45.040Z,101216.23
2023-05-11T02:32:54.972Z,101218.36
2023-05-11T02:38:04.488Z,101218.91
2023-05-11T02:43:11.557Z,101218.83
2023-05-11T02:48:26.675Z,101216.78
2023-05-11T02:53:33.679Z,101219.77
2023-05-11T02:58:39.660Z,101220.05
2023-05-11T03:03:58.161Z,101224.77
2023-05-11T03:09:07.179Z,101222.73
2023-05-11T03:14:14.163Z,101224.13
2023-05-11T03:19:29.754Z,101226.55
2023-05-11T03:24:36.356Z,101231.08
2023-05-11T03:29:47.071Z,101230.95
2023-05-11T03:34:55.679Z,101235.06
2023-05-11T03:40:03.395Z,101238.73
2023-05-11T03:45:17.627Z,101238.38
2023-05-11T03:50:24.175Z,101239.15
2023-05-11T03:55:29.843Z,101243.11
2023-05-11T04:00:37.191Z,101250.10
2023-05-11T04:05:43.528Z,101254.30
2023-05-11T04:10:50.985Z,101252.27
2023-05-11T04:15:56.352Z,101249.34
2023-05-11T04:21:02.051Z,101244.13
2023-05-11T04:26:07.628Z,101240.23
2023-05-11T04:31:13.303Z,101237.55
2023-05-11T04:36:19.002Z,101236.00
2023-05-11T04:41:24.683Z,101234.86
2023-05-11T04:46:32.099Z,101235.46
2023-05-11T04:51:40.014Z,101234.08
2023-05-11T04:56:45.934Z,101239.96
2023-05-11T05:01:53.102Z,101243.67
2023-05-11T05:07:00.662Z,101241.90
2023-05-11T05:12:06.777Z,101238.41
2023-05-11T05:17:14.125Z,101244.00
2023-05-11T05:22:19.866Z,101240.15
2023-05-11T05:27:25.784Z,101249.19
2023-05-11T05:32:31.923Z,101252.30
2023-05-11T05:37:38.253Z,101247.19
2023-05-11T05:42:45.984Z,101249.10
2023-05-11T05:47:54.427Z,101249.16
2023-05-11T05:53:00.770Z,101250.08
2023-05-11T05:58:08.313Z,101257.41
2023-05-11T06:03:14.092Z,101252.91
2023-05-11T06:08:19.864Z,101248.77
2023-05-11T06:13:25.879Z,101248.55
2023-05-11T06:18:31.886Z,101251.91
2023-05-11T06:23:38.628Z,101259.46
2023-05-11T06:28:44.363Z,101259.52
2023-05-11T06:33:52.466Z,101261.21
2023-05-11T06:39:00.886Z,101267.73
2023-05-11T06:44:06.950Z,101269.10
2023-05-11T06:49:16.507Z,101272.39
2023-05-11T06:54:23.342Z,101267.66
2023-05-11T06:59:28.897Z,101272.88
2023-05-11T07:04:34.425Z,101266.66
2023-05-11T07:09:41.891Z,101267.51
2023-05-11T07:14:47.988Z,101271.96
2023-05-11T07:19:54.717Z,101274.00
2023-05-11T07:25:01.574Z,101268.65
2023-05-11T07:30:08.727Z,101264.14
2023-05-11T07:35:15.340Z,101259.98
2023-05-11T07:40:21.237Z,101263.40
2023-05-11T07:45:27.006Z,101260.23
2023-05-11T07:50:32.607Z,101256.70
2023-05-11T07:55:38.027Z,101254.95
2023-05-11T08:00:43.529Z,101263.63
2023-05-11T08:05:49.139Z,101260.35
2023-05-11T08:10:54.514Z,101271.41
2023-05-11T08:15:59.921Z,101259.46
2023-05-11T08:21:07.417Z,101250.95
2023-05-11T08:26:12.881Z,101247.69
2023-05-11T08:31:18.583Z,101252.01
2023-05-11T08:36:24.132Z,101246.44
2023-05-11T08:41:30.041Z,101241.16
2023-05-11T08:46:39.892Z,101239.43
2023-05-11T08:51:46.297Z,101240.86
2023-05-11T08:56:52.644Z,101245.65
2023-05-11T09:01:59.382Z,101242.11
2023-05-11T09:07:04.969Z,101243.55
2023-05-11T09:12:12.879Z,101244.59
2023-05-11T09:17:18.217Z,101236.59
2023-05-11T09:22:23.972Z,101238.92
2023-05-11T09:27:29.731Z,101234.11
2023-05-11T09:32:49.770Z,101227.77
2023-05-11T09:38:04.610Z,101235.14
2023-05-11T09:43:20.179Z,101235.43
2023-05-11T09:48:31.878Z,101225.41
2023-05-11T09:53:42.651Z,101228.70
2023-05-11T09:58:51.044Z,101217.10
2023-05-11T10:04:08.943Z,101221.31
2023-05-11T10:09:25.725Z,101211.09
2023-05-11T10:14:32.318Z,101209.11
2023-05-11T10:19:38.135Z,101205.19
2023-05-11T10:24:44.554Z,101203.28
2023-05-11T10:29:51.048Z,101198.96
2023-05-11T10:34:58.203Z,101203.30
2023-05-11T10:40:04.859Z,101197.45
2023-05-11T10:45:18.983Z,101190.34
2023-05-11T10:50:46.017Z,101188.86
2023-05-11T10:56:14.998Z,101177.17
2023-05-11T11:01:40.471Z,101183.27
2023-05-11T11:06:46.162Z,101175.46
2023-05-11T11:11:51.841Z,101167.77
2023-05-11T11:17:24.559Z,101164.60
2023-05-11T11:22:46.961Z,101173.23
2023-05-11T11:28:01.965Z,101177.92
2023-05-11T11:33:33.584Z,101164.67
2023-05-11T11:39:00.399Z,101153.45
2023-05-11T11:44:19.949Z,101176.11
2023-05-11T11:49:28.606Z,101166.54
2023-05-11T11:54:40.718Z,101165.39
2023-05-11T11:59:49.047Z,101169.23
2023-05-11T12:05:00.177Z,101166.70
2023-05-11T12:10:06.702Z,101162.75
2023-05-11T12:15:24.516Z,101159.41
2023-05-11T12:20:30.483Z,101159.06
2023-05-11T12:25:35.874Z,101156.62
2023-05-11T12:30:41.396Z,101153.48
2023-05-11T12:35:51.479Z,101155.85
2023-05-11T12:40:57.018Z,101154.65
2023-05-11T12:46:03.812Z,101136.75
2023-05-11T12:51:09.234Z,101142.96
2023-05-11T12:56:14.811Z,101143.55
2023-05-11T13:01:26.189Z,101122.67
2023-05-11T13:06:32.782Z,101118.14
2023-05-11T13:11:38.260Z,101122.60
2023-05-11T13:16:54.159Z,101125.43
2023-05-11T13:21:59.618Z,101113.67
2023-05-11T13:27:05.678Z,101112.19
2023-05-11T13:32:12.440Z,101108.58
2023-05-11T13:37:18.142Z,101102.59
2023-05-11T13:42:23.904Z,101108.34
2023-05-11T13:47:29.804Z,101104.98
2023-05-11T13:52:35.294Z,101110.40
2023-05-11T13:57:40.936Z,101102.00
2023-05-11T14:02:48.301Z,101094.85
2023-05-11T14:07:54.172Z,101097.00
2023-05-11T14:13:00.308Z,101100.02
2023-05-11T14:18:07.939Z,101090.07
2023-05-11T14:23:13.536Z,101095.05
2023-05-11T14:28:19.060Z,101088.94
2023-05-11T14:33:25.949Z,101089.50
2023-05-11T14:38:31.890Z,101080.23
2023-05-11T14:43:39.885Z,101086.50
2023-05-11T14:48:45.554Z,101081.23
2023-05-11T14:53:51.634Z,101083.92
2023-05-11T14:58:57.770Z,101085.64
2023-05-11T15:04:05.424Z,101089.98
2023-05-11T15:09:11.758Z,101088.92
2023-05-11T15:14:17.586Z,101090.91
2023-05-11T15:19:26.319Z,101084.11
2023-05-11T15:24:31.755Z,101081.52
2023-05-11T15:29:38.776Z,101083.22
2023-05-11T15:34:58.715Z,101080.48
2023-05-11T15:40:10.127Z,101078.13
2023-05-11T15:45:16.034Z,101080.55
2023-05-11T15:50:22.037Z,101086.02
2023-05-11T15:55:28.033Z,101085.63
2023-05-11T16:00:34.100Z,101093.14
2023-05-11T16:05:39.973Z,101090.45
2023-05-11T16:10:45.780Z,101092.20
2023-05-11T16:15:51.599Z,101094.40
2023-05-11T16:20:57.565Z,101090.34
2023-05-11T16:26:03.965Z,101091.70
2023-05-11T16:31:09.523Z,101089.73
2023-05-11T16:36:15.071Z,101089.11
2023-05-11T16:41:20.612Z,101090.77
2023-05-11T16:46:26.128Z,101088.39
2023-05-11T16:51:31.762Z,101089.93
2023-05-11T16:56:37.304Z,101090.48
2023-05-11T17:01:46.857Z,101089.36
2023-05-11T17:06:52.645Z,101091.10
2023-05-11T17:11:58.552Z,101090.03
2023-05-11T17:17:06.851Z,101107.29
2023-05-11T17:22:12.529Z,101108.59
2023-05-11T17:27:18.086Z,101106.05
2023-05-11T17:32:23.892Z,101105.27
2023-05-11T17:37:32.207Z,101108.55
2023-05-11T17:42:38.706Z,101112.63
2023-05-11T17:47:44.284Z,101114.73
2023-05-11T17:52:50.989Z,101118.80
2023-05-11T17:57:56.921Z,101119.73
2023-05-11T18:03:02.637Z,101121.31
2023-05-11T18:08:09.372Z,101123.95
2023-05-11T18:13:17.449Z,101131.61
2023-05-11T18:18:26.501Z,101140.59
2023-05-11T18:23:35.305Z,101144.88
2023-05-11T18:28:40.740Z,101147.91
2023-05-11T18:33:46.724Z,101153.04
2023-05-11T18:38:53.932Z,101157.33
2023-05-11T18:44:06.459Z,101159.23
2023-05-11T18:49:15.901Z,101167.77
2023-05-11T18:54:21.231Z,101172.02
2023-05-11T18:59:26.821Z,101177.12
2023-05-11T19:04:32.222Z,101178.98
2023-05-11T19:09:37.573Z,101182.65
2023-05-11T19:14:43.434Z,101189.29
2023-05-11T19:19:49.687Z,101193.25
2023-05-11T19:24:55.043Z,101198.34
2023-05-11T19:30:00.913Z,101199.41
2023-05-11T19:35:12.169Z,101203.77
2023-05-11T19:45:42.227Z,101208.90
2023-05-11T19:50:49.533Z,101209.52
2023-05-11T19:55:55.711Z,101215.64
2023-05-11T20:01:01.276Z,101214.41
2023-05-11T20:06:08.411Z,101214.42
2023-05-11T20:11:14.534Z,101218.39
2023-05-11T20:16:20.468Z,101219.20
2023-05-11T20:21:26.463Z,101222.66
2023-05-11T20:26:32.589Z,101230.25
2023-05-11T20:31:43.299Z,101228.63
2023-05-11T20:36:53.003Z,101226.84
2023-05-11T20:42:00.109Z,101235.39
2023-05-11T20:47:06.768Z,101233.67
2023-05-11T20:52:13.721Z,101235.28
2023-05-11T20:57:21.655Z,101233.81
2023-05-11T21:02:27.309Z,101232.80
2023-05-11T21:07:33.002Z,101237.16
2023-05-11T21:12:38.493Z,101239.22
2023-05-11T21:17:43.965Z,101249.58
2023-05-11T21:22:49.434Z,101250.23
2023-05-11T21:28:01.126Z,101254.21
2023-05-11T21:33:06.767Z,101260.46
2023-05-11T21:38:15.031Z,101264.59
2023-05-11T21:43:20.612Z,101272.91
2023-05-11T21:48:26.192Z,101275.65
2023-05-11T21:53:31.875Z,101273.89
2023-05-11T21:58:37.403Z,101282.73
2023-05-11T22:03:42.863Z,101287.74
2023-05-11T22:08:48.345Z,101285.77
2023-05-11T22:13:53.701Z,101291.41
2023-05-11T22:18:59.154Z,101296.73
2023-05-11T22:24:05.013Z,101299.26
2023-05-11T22:29:13.368Z,101307.20
2023-05-11T22:34:19.509Z,101307.66
2023-05-11T22:39:25.077Z,101312.95
2023-05-11T22:44:30.438Z,101313.05
2023-05-11T22:49:35.843Z,101309.29
2023-05-11T22:54:41.509Z,101309.88
2023-05-11T22:59:46.939Z,101309.25
2023-05-11T23:04:53.123Z,101314.52
2023-05-11T23:09:58.542Z,101311.24
2023-05-11T23:15:05.136Z,101310.77
2023-05-11T23:20:12.273Z,101310.28
2023-05-11T23:25:18.444Z,101311.52
2023-05-11T23:30:24.259Z,101308.25
2023-05-11T23:35:29.572Z,101305.65
2023-05-11T23:40:35.071Z,101303.58
2023-05-11T23:45:40.702Z,101301.51
2023-05-11T23:50:46.353Z,101306.71
2023-05-11T23:55:51.725Z,101306.88
